San Rafael, CA (94901)

5:15 AM PDT en Agosto 30, 2014 (GMT -0700)
Lincoln Hill | Change Station
CLOSE
Current Station
Estación meteorológica personal
Location: San Rafael, CA
Altura: 210 ft
Estaciones meteorológicas cercanas

Alt 210 ft 37.98 °N, 122.52 °W | Updated 11 seconds ago

Parcialmente nublado
Parcialmente nublado
62.6 ° F
Sensación térmica 62.6 ° F
N
0.0
Viento Variable Viento desde NNE
Gusts 0.0 mph

Hoy
Alta -- | Baja -- ° F
--% Posibilidad de precipitaciones
Ayer
Alta -- | Baja -- ° F
Precip. -- pul
6:38 AM 7:42 PM
Creciente, 21% visible
Presión 29.85 pul
Visibilidad 10.0 Millas
Nubes Despejado
Punto de rocío 52 ° F
Humedad 69%
Precipitaciones 0.00 pul
Espesor de la nieve No disponible.
UV 0 de una escala de 12
Polen 7.70 de una escala de 12
Calidad del aire No disponible.
Flu Activity No disponible.
METAR KAPC 301154Z 00000KT 10SM CLR 13/11 A2988 RMK AO2 SLP108 T01280111 10178 20128 58000

More Conditions Fewer Conditions

Presión 29.85 pul
Visibilidad 10.0 Millas
Nubes Despejado
Punto de rocío 52 ° F
Humedad 69%
Precipitaciones 0.00 pul
Espesor de la nieve No disponible.
UV 0 de una escala de 12
Polen 7.70 de una escala de 12
Calidad del aire No disponible.
Flu Activity No disponible.
METAR KAPC 301154Z 00000KT 10SM CLR 13/11 A2988 RMK AO2 SLP108 T01280111 10178 20128 58000

More Conditions Fewer Conditions

10-Day Weather Forecast

Almanac

Astronomía

Aug. 30, 2014 Salida Puesta
Hora real 6:38 AM PDT 7:42 PM PDT
Crepúsculo civil 6:11 AM PDT 8:09 PM PDT
Crepúsculo náutico 5:39 AM PDT 8:41 PM PDT
Crepúsculo astronómico 5:05 AM PDT 9:14 PM PDT
Luna 11:25 AM PDT 10:25 PM PDT
Horas de luz 13h 58m
Horas de luz
13h 03m
Tomorrow will be 2m 20s shorter.
Creciente, 21% of the Moon is Illuminated
Hoy
Creciente
Sep 2
Cuarto creciente
Sep 8
Luna llena
Sep 15
Cuarto menguante
Sep 24
Nueva

Extremos de hoy

Máximos del estado Bajos del estado

Community

WunderPhotos

Upload Photos

1,748,500 ¡fotos cargadas!

WunderBlogs® & News

By Dr. Jeff Masters
Director of Meteorology, Weather Underground
By Kari Strenfel
Meteorologist, Weather Underground
By Christopher C. Burt
Weather Historian, Weather Underground
August 30, 2014
August 30, 2014
August 30, 2014

Nearby

Calidad del aire

  Calidad del aire Índice AQ Contaminante
Ayer Buena
PM2.5
Ayer Buena
OZONE
Sábado Buena
PM2.5
Domingo Buena
PM2.5
Lunes Buena
PM2.5
Martes Buena
PM2.5
Miércoles Buena
PM2.5

Grosos de nieve

Estación Profundido Altura
Echo Peak 1 in 7800 ft
Forestdale Creek 0 in 8029 ft
Rubicon #2 0 in 7500 ft
Blue Lakes 0 in 8000 ft
CSS Lab 3 in 6900 ft

Actividad de terremotos

Ciudad Distance Mag. Tiempo y dato
Ridgemark, California 110 Millas 3.4 4:32 PM PDT
2014-08-29
The Geysers, California 61 Millas 2.7 2:53 PM PDT
2014-08-29
Ridgemark, California 109 Millas 3.0 2:44 PM PDT
2014-08-29
Magnitud mínima muestra es 2,5.

Temperaturas de aguas costeras

Lugar Temperatura
San Francisco, CA 64.9 ° F
Richmond, CA 66.9 ° F
Port Chicago, CA 69.1 ° F

Estaciones meteorológicas cercanas